createdAt,value
2018-06-30T00:01:43.870Z,56.10
2018-06-30T00:04:12.031Z,56.58
2018-06-30T00:06:40.190Z,56.18
2018-06-30T00:09:09.190Z,56.40
2018-06-30T00:11:37.594Z,56.35
2018-06-30T00:14:05.774Z,56.73
2018-06-30T00:16:33.970Z,56.82
2018-06-30T00:19:02.131Z,56.50
2018-06-30T00:21:30.310Z,56.64
2018-06-30T00:23:58.483Z,55.90
2018-06-30T00:26:26.646Z,55.62
2018-06-30T00:28:54.822Z,55.40
2018-06-30T00:31:22.979Z,54.89
2018-06-30T00:33:51.138Z,55.22
2018-06-30T00:36:19.290Z,54.73
2018-06-30T00:38:47.459Z,54.81
2018-06-30T00:41:15.606Z,54.70
2018-06-30T00:43:43.831Z,54.94
2018-06-30T00:46:11.986Z,54.82
2018-06-30T00:48:40.222Z,55.03
2018-06-30T00:51:08.330Z,54.85
2018-06-30T00:53:36.491Z,54.65
2018-06-30T00:56:04.723Z,54.17
2018-06-30T00:58:32.888Z,54.37
2018-06-30T01:01:01.050Z,53.98
2018-06-30T01:03:29.227Z,54.51
2018-06-30T01:05:57.406Z,54.35
2018-06-30T01:08:25.565Z,54.35
2018-06-30T01:10:53.738Z,54.27
2018-06-30T01:13:21.916Z,54.47
2018-06-30T01:15:50.074Z,53.74
2018-06-30T01:18:18.250Z,54.10
2018-06-30T01:20:46.417Z,54.01
2018-06-30T01:23:14.614Z,53.69
2018-06-30T01:25:42.801Z,53.73
2018-06-30T01:28:10.971Z,53.90
2018-06-30T01:30:39.150Z,53.86
2018-06-30T01:33:07.314Z,53.87
2018-06-30T01:35:35.510Z,54.18
2018-06-30T01:38:03.686Z,53.87
2018-06-30T01:40:31.851Z,54.51
2018-06-30T01:43:00.025Z,54.44
2018-06-30T01:45:28.251Z,54.45
2018-06-30T01:47:56.370Z,55.40
2018-06-30T01:50:24.703Z,54.84
2018-06-30T01:52:53.178Z,54.93
2018-06-30T01:55:21.338Z,55.06
2018-06-30T01:57:49.520Z,55.07
2018-06-30T02:00:17.690Z,55.28
2018-06-30T02:02:45.857Z,55.22
2018-06-30T02:05:14.014Z,55.30
2018-06-30T02:07:42.170Z,55.61
2018-06-30T02:10:10.341Z,55.75
2018-06-30T02:12:38.686Z,55.91
2018-06-30T02:15:07.050Z,55.81
2018-06-30T02:17:35.322Z,56.01
2018-06-30T02:20:03.662Z,56.29
2018-06-30T02:22:31.832Z,55.64
2018-06-30T02:25:00.002Z,55.87
2018-06-30T02:27:28.173Z,56.43
2018-06-30T02:29:56.354Z,56.48
2018-06-30T02:32:24.510Z,56.18
2018-06-30T02:34:52.670Z,56.24
2018-06-30T02:37:20.834Z,56.37
2018-06-30T02:39:49.006Z,56.52
2018-06-30T02:42:17.171Z,57.07
2018-06-30T02:44:45.347Z,56.93
2018-06-30T02:47:13.518Z,57.11
2018-06-30T02:49:41.699Z,57.82
2018-06-30T02:52:09.863Z,57.77
2018-06-30T02:54:38.041Z,58.32
2018-06-30T02:57:06.227Z,58.14
2018-06-30T02:59:34.398Z,58.49
2018-06-30T03:02:02.586Z,59.36
2018-06-30T03:04:30.749Z,59.22
2018-06-30T03:06:58.943Z,59.42
2018-06-30T03:09:27.086Z,59.80
2018-06-30T03:11:55.247Z,59.89
2018-06-30T03:14:23.411Z,60.26
2018-06-30T03:16:51.591Z,60.21
2018-06-30T03:19:19.750Z,60.57
2018-06-30T03:21:47.907Z,61.03
2018-06-30T03:24:16.147Z,60.97
2018-06-30T03:26:44.306Z,60.97
2018-06-30T03:29:12.466Z,60.69
2018-06-30T03:31:40.739Z,60.45
2018-06-30T03:34:08.822Z,60.40
2018-06-30T03:36:36.986Z,60.36
2018-06-30T03:39:07.590Z,60.42
2018-06-30T03:41:35.758Z,60.50
2018-06-30T03:44:03.997Z,60.71
2018-06-30T03:46:32.154Z,60.99
2018-06-30T03:49:00.325Z,60.78
2018-06-30T03:51:28.474Z,60.73
2018-06-30T03:53:56.890Z,60.25
2018-06-30T03:56:25.283Z,60.41
2018-06-30T03:58:53.497Z,60.11
2018-06-30T04:01:21.678Z,60.53
2018-06-30T04:03:49.843Z,60.75
2018-06-30T04:06:18.022Z,60.76
2018-06-30T04:08:46.309Z,60.13
2018-06-30T04:11:14.462Z,60.38
2018-06-30T04:13:42.650Z,60.06
2018-06-30T04:16:10.818Z,60.21
2018-06-30T04:18:39.006Z,59.97
2018-06-30T04:21:07.227Z,59.98
2018-06-30T04:23:35.438Z,60.30
2018-06-30T04:26:03.606Z,60.29
2018-06-30T04:28:31.791Z,59.96
2018-06-30T04:30:59.958Z,60.23
2018-06-30T04:33:28.158Z,59.87
2018-06-30T04:35:56.318Z,59.27
2018-06-30T04:38:24.481Z,59.13
2018-06-30T04:40:52.686Z,59.26
2018-06-30T04:43:20.846Z,59.40
2018-06-30T04:45:49.455Z,59.56
2018-06-30T04:48:17.614Z,59.35
2018-06-30T04:50:45.787Z,59.00
2018-06-30T04:53:14.381Z,58.96
2018-06-30T04:55:42.550Z,59.00
2018-06-30T04:58:10.718Z,59.05
2018-06-30T05:00:38.893Z,58.65
2018-06-30T05:03:07.058Z,59.12
2018-06-30T05:05:37.243Z,58.84
2018-06-30T05:08:05.417Z,58.80
2018-06-30T05:10:33.578Z,58.38
2018-06-30T05:13:01.750Z,57.86
2018-06-30T05:15:29.905Z,58.07
2018-06-30T05:17:58.075Z,57.98
2018-06-30T05:20:26.282Z,58.33
2018-06-30T05:22:54.430Z,57.89
2018-06-30T05:25:22.612Z,57.87
2018-06-30T05:27:50.799Z,57.89
2018-06-30T05:30:18.995Z,57.89
2018-06-30T05:32:47.194Z,57.76
2018-06-30T05:35:15.423Z,57.93
2018-06-30T05:37:43.690Z,57.65
2018-06-30T05:40:11.846Z,57.32
2018-06-30T05:42:40.066Z,57.87
2018-06-30T05:45:08.224Z,56.93
2018-06-30T05:47:36.381Z,56.69
2018-06-30T05:50:04.727Z,57.02
2018-06-30T05:52:32.894Z,56.73
2018-06-30T05:55:01.135Z,56.28
2018-06-30T05:57:29.311Z,56.01
2018-06-30T05:59:57.455Z,55.33
2018-06-30T06:02:25.624Z,55.67
2018-06-30T06:04:53.790Z,55.99
2018-06-30T06:07:21.942Z,55.73
2018-06-30T06:09:50.201Z,55.92
2018-06-30T06:12:18.272Z,55.59
2018-06-30T06:14:46.433Z,55.01
2018-06-30T06:17:14.601Z,55.37
2018-06-30T06:19:42.807Z,55.45
2018-06-30T06:22:10.966Z,54.95
2018-06-30T06:24:39.127Z,54.34
2018-06-30T06:27:07.326Z,54.60
2018-06-30T06:29:35.498Z,55.20
2018-06-30T06:32:03.667Z,55.58
2018-06-30T06:34:31.847Z,54.47
2018-06-30T06:37:00.005Z,55.09
2018-06-30T06:39:28.159Z,55.15
2018-06-30T06:41:56.370Z,55.15
2018-06-30T06:44:25.012Z,55.85
2018-06-30T06:46:54.030Z,54.25
2018-06-30T06:49:22.206Z,53.46
2018-06-30T06:51:50.370Z,54.06
2018-06-30T06:54:18.594Z,53.77
2018-06-30T06:56:46.786Z,53.68
2018-06-30T06:59:14.955Z,54.11
2018-06-30T07:01:43.126Z,52.68
2018-06-30T07:04:11.295Z,53.39
2018-06-30T07:06:39.606Z,53.74
2018-06-30T07:09:09.425Z,52.55
2018-06-30T07:11:37.693Z,53.46
2018-06-30T07:14:05.895Z,52.00
2018-06-30T07:16:34.060Z,52.85
2018-06-30T07:19:02.239Z,52.76
2018-06-30T07:21:30.423Z,51.54
2018-06-30T07:23:58.598Z,51.39
2018-06-30T07:26:26.792Z,50.76
2018-06-30T07:28:55.130Z,50.97
2018-06-30T07:31:23.310Z,51.05
2018-06-30T07:33:51.490Z,51.28
2018-06-30T07:36:19.688Z,50.25
2018-06-30T07:38:47.862Z,49.99
2018-06-30T07:41:16.066Z,49.20
2018-06-30T07:43:44.312Z,50.10
2018-06-30T07:46:12.475Z,49.18
2018-06-30T07:48:40.824Z,51.18
2018-06-30T07:51:09.000Z,49.04
2018-06-30T07:53:37.179Z,52.01
2018-06-30T07:56:05.462Z,49.92
2018-06-30T07:58:33.552Z,49.69
2018-06-30T08:01:01.726Z,51.97
2018-06-30T08:03:29.906Z,50.15
2018-06-30T08:05:58.094Z,49.06
2018-06-30T08:08:26.276Z,48.77
2018-06-30T08:10:54.459Z,49.01
2018-06-30T08:13:22.667Z,49.11
2018-06-30T08:15:50.914Z,47.75
2018-06-30T08:18:19.145Z,47.99
2018-06-30T08:20:47.371Z,49.04
2018-06-30T08:23:15.571Z,49.44
2018-06-30T08:25:43.750Z,48.16
2018-06-30T08:28:11.983Z,46.32
2018-06-30T08:30:40.179Z,46.65
2018-06-30T08:33:08.366Z,46.48
2018-06-30T08:35:36.574Z,46.19
2018-06-30T08:38:04.870Z,47.38
2018-06-30T08:40:33.296Z,47.61
2018-06-30T08:43:01.679Z,48.98
2018-06-30T08:45:30.047Z,46.87
2018-06-30T08:47:58.355Z,47.14
2018-06-30T08:50:26.707Z,45.30
2018-06-30T08:52:55.198Z,46.21
2018-06-30T08:55:23.699Z,45.82
2018-06-30T08:57:52.611Z,44.05
2018-06-30T09:00:21.224Z,43.82
2018-06-30T09:02:49.408Z,44.27
2018-06-30T09:05:17.812Z,46.05
2018-06-30T09:07:45.990Z,43.62
2018-06-30T09:10:14.242Z,42.91
2018-06-30T09:12:42.653Z,42.13
2018-06-30T09:15:11.347Z,42.54
2018-06-30T09:17:41.247Z,41.38
2018-06-30T09:20:09.764Z,44.04
2018-06-30T09:22:38.147Z,42.81
2018-06-30T09:25:07.197Z,41.52
2018-06-30T09:27:35.610Z,40.62
2018-06-30T09:30:04.823Z,40.57
2018-06-30T09:32:33.174Z,40.37
2018-06-30T09:35:01.639Z,40.51
2018-06-30T09:37:30.057Z,39.33
2018-06-30T09:39:58.292Z,39.14
2018-06-30T09:42:26.882Z,40.54
2018-06-30T09:44:55.614Z,40.88
2018-06-30T09:47:24.097Z,39.56
2018-06-30T09:49:52.267Z,44.16
2018-06-30T09:52:20.468Z,42.16
2018-06-30T09:54:48.617Z,40.34
2018-06-30T09:57:16.784Z,39.15
2018-06-30T09:59:44.942Z,39.92
2018-06-30T10:02:13.105Z,39.52
2018-06-30T10:04:41.282Z,39.70
2018-06-30T10:07:09.439Z,39.31
2018-06-30T10:09:37.745Z,37.21
2018-06-30T10:12:06.114Z,35.16
2018-06-30T10:14:34.295Z,35.90
2018-06-30T10:17:02.611Z,37.81
2018-06-30T10:19:30.762Z,33.96
2018-06-30T10:21:58.890Z,34.25
2018-06-30T10:24:27.050Z,34.76
2018-06-30T10:26:55.218Z,33.82
2018-06-30T10:29:23.614Z,33.79
2018-06-30T10:31:51.795Z,33.46
2018-06-30T10:34:20.012Z,32.76
2018-06-30T10:36:48.185Z,31.54
2018-06-30T10:39:16.333Z,29.90
2018-06-30T10:41:44.530Z,31.87
2018-06-30T10:44:12.698Z,32.56
2018-06-30T10:46:40.869Z,33.54
2018-06-30T10:49:09.522Z,34.04
2018-06-30T10:51:37.913Z,33.76
2018-06-30T10:54:06.350Z,34.26
2018-06-30T10:56:34.663Z,33.75
2018-06-30T10:59:03.141Z,33.98
2018-06-30T11:01:31.627Z,31.77
2018-06-30T11:03:59.867Z,33.21
2018-06-30T11:06:27.990Z,31.17
2018-06-30T11:08:56.158Z,31.80
2018-06-30T11:11:24.319Z,32.02
2018-06-30T11:13:52.726Z,32.41
2018-06-30T11:16:20.898Z,32.49
2018-06-30T11:18:49.066Z,34.26
2018-06-30T11:21:17.255Z,34.55
2018-06-30T11:23:45.418Z,34.16
2018-06-30T11:26:13.581Z,34.39
2018-06-30T11:28:41.815Z,34.34
2018-06-30T11:31:10.020Z,34.59
2018-06-30T11:33:38.314Z,33.25
2018-06-30T11:36:06.582Z,32.66
2018-06-30T11:38:34.726Z,31.06
2018-06-30T11:41:02.954Z,32.01
2018-06-30T11:43:31.147Z,32.96
2018-06-30T11:45:59.346Z,33.70
2018-06-30T11:48:27.574Z,33.84
2018-06-30T11:50:56.160Z,33.38
2018-06-30T11:53:24.638Z,33.56
2018-06-30T11:55:52.806Z,32.84
2018-06-30T11:58:20.970Z,33.50
2018-06-30T12:00:49.170Z,34.34
2018-06-30T12:03:17.346Z,34.17
2018-06-30T12:05:45.510Z,35.72
2018-06-30T12:08:13.678Z,33.40
2018-06-30T12:10:41.855Z,35.17
2018-06-30T12:13:10.012Z,34.34
2018-06-30T12:15:38.419Z,34.44
2018-06-30T12:18:06.612Z,33.88
2018-06-30T12:20:34.787Z,33.23
2018-06-30T12:23:02.984Z,34.33
2018-06-30T12:25:31.206Z,33.50
2018-06-30T12:27:59.494Z,34.18
2018-06-30T12:30:27.827Z,34.02
2018-06-30T12:32:56.166Z,34.01
2018-06-30T12:35:24.408Z,33.87
2018-06-30T12:37:53.022Z,33.42
2018-06-30T12:40:21.355Z,34.26
2018-06-30T12:42:49.629Z,34.82
2018-06-30T12:45:17.810Z,34.88
2018-06-30T12:47:46.015Z,35.31
2018-06-30T12:50:14.254Z,34.61
2018-06-30T12:52:42.523Z,35.39
2018-06-30T12:55:10.732Z,33.95
2018-06-30T12:57:39.207Z,33.49
2018-06-30T13:00:07.878Z,33.72
2018-06-30T13:02:36.172Z,34.71
2018-06-30T13:05:05.642Z,34.14
2018-06-30T13:07:34.059Z,33.70
2018-06-30T13:10:03.164Z,35.46
2018-06-30T13:12:31.667Z,31.67
2018-06-30T13:15:00.223Z,33.13
2018-06-30T13:17:28.868Z,34.07
2018-06-30T13:19:57.296Z,34.32
2018-06-30T13:22:27.899Z,32.41
2018-06-30T13:24:57.088Z,33.20
2018-06-30T13:27:25.277Z,32.98
2018-06-30T13:29:53.868Z,32.56
2018-06-30T13:32:22.276Z,33.18
2018-06-30T13:34:50.606Z,33.50
2018-06-30T13:37:19.407Z,32.68
2018-06-30T13:39:48.076Z,32.68
2018-06-30T13:42:16.436Z,32.74
2018-06-30T13:44:45.530Z,32.34
2018-06-30T13:47:13.979Z,33.21
2018-06-30T13:49:42.515Z,32.08
2018-06-30T13:52:11.327Z,32.82
2018-06-30T13:54:41.053Z,31.66
2018-06-30T13:57:09.490Z,30.39
2018-06-30T13:59:38.068Z,31.88
2018-06-30T14:02:07.340Z,32.55
2018-06-30T14:04:35.727Z,31.92
2018-06-30T14:07:04.138Z,32.35
2018-06-30T14:09:32.501Z,32.06
2018-06-30T14:12:00.826Z,31.30
2018-06-30T14:14:29.010Z,31.94
2018-06-30T14:16:57.169Z,31.16
2018-06-30T14:19:25.370Z,31.22
2018-06-30T14:21:53.586Z,31.76
2018-06-30T14:24:21.767Z,30.78
2018-06-30T14:26:49.926Z,32.05
2018-06-30T14:29:18.094Z,31.74
2018-06-30T14:31:46.246Z,31.94
2018-06-30T14:34:14.450Z,30.40
2018-06-30T14:36:42.618Z,31.89
2018-06-30T14:39:12.395Z,30.22
2018-06-30T14:41:41.142Z,31.17
2018-06-30T14:44:09.752Z,31.50
2018-06-30T14:46:38.854Z,30.91
2018-06-30T14:49:07.120Z,30.84
2018-06-30T14:51:36.083Z,30.11
2018-06-30T14:54:04.481Z,31.46
2018-06-30T14:56:32.975Z,30.82
2018-06-30T14:59:01.235Z,31.03
2018-06-30T15:01:29.502Z,31.06
2018-06-30T15:03:57.858Z,30.58
2018-06-30T15:06:26.030Z,30.50
2018-06-30T15:08:54.234Z,30.84
2018-06-30T15:11:22.450Z,30.93
2018-06-30T15:13:50.887Z,30.61
2018-06-30T15:16:19.073Z,29.68
2018-06-30T15:18:47.301Z,30.37
2018-06-30T15:21:15.454Z,31.08
2018-06-30T15:23:43.642Z,31.32
2018-06-30T15:26:11.869Z,31.42
2018-06-30T15:28:40.024Z,31.77
2018-06-30T15:31:08.186Z,30.38
2018-06-30T15:33:36.358Z,30.72
2018-06-30T15:36:04.718Z,31.14
2018-06-30T15:38:32.846Z,32.29
2018-06-30T15:41:01.736Z,30.98
2018-06-30T15:43:30.278Z,30.80
2018-06-30T15:45:58.829Z,31.47
2018-06-30T15:48:27.162Z,31.32
2018-06-30T15:50:56.182Z,30.92
2018-06-30T15:53:24.851Z,31.27
2018-06-30T15:55:53.306Z,30.59
2018-06-30T15:58:21.482Z,30.12
2018-06-30T16:00:49.666Z,30.48
2018-06-30T16:03:18.607Z,30.53
2018-06-30T16:05:47.186Z,29.41
2018-06-30T16:08:15.378Z,29.91
2018-06-30T16:10:43.570Z,30.82
2018-06-30T16:13:11.730Z,31.58
2018-06-30T16:15:40.074Z,31.82
2018-06-30T16:18:08.461Z,33.08
2018-06-30T16:20:36.663Z,32.83
2018-06-30T16:23:04.869Z,32.26
2018-06-30T16:25:33.034Z,31.78
2018-06-30T16:28:01.188Z,31.87
2018-06-30T16:30:29.343Z,31.52
2018-06-30T16:32:57.581Z,31.35
2018-06-30T16:35:25.770Z,31.23
2018-06-30T16:37:53.869Z,31.29
2018-06-30T16:40:22.039Z,31.89
2018-06-30T16:42:50.583Z,31.00
2018-06-30T16:45:19.177Z,31.54
2018-06-30T16:47:48.106Z,31.34
2018-06-30T16:50:16.662Z,31.12
2018-06-30T16:52:44.834Z,30.20
2018-06-30T16:55:13.558Z,29.99
2018-06-30T16:57:42.576Z,29.74
2018-06-30T17:00:11.168Z,28.42
2018-06-30T17:02:40.226Z,29.52
2018-06-30T17:05:08.757Z,29.96
2018-06-30T17:07:37.420Z,29.32
2018-06-30T17:10:05.863Z,29.57
2018-06-30T17:12:35.374Z,30.23
2018-06-30T17:15:03.839Z,30.38
2018-06-30T17:17:32.086Z,30.33
2018-06-30T17:20:00.983Z,29.24
2018-06-30T17:22:29.643Z,28.35
2018-06-30T17:24:58.141Z,28.20
2018-06-30T17:27:26.455Z,28.01
2018-06-30T17:29:55.044Z,28.36
2018-06-30T17:32:23.377Z,28.25
2018-06-30T17:34:51.561Z,28.35
2018-06-30T17:37:19.726Z,29.51
2018-06-30T17:39:47.911Z,29.09
2018-06-30T17:42:16.106Z,28.03
2018-06-30T17:44:44.292Z,28.67
2018-06-30T17:47:12.471Z,28.84
2018-06-30T17:49:40.758Z,27.26
2018-06-30T17:52:08.943Z,27.73
2018-06-30T17:54:37.118Z,28.18
2018-06-30T17:57:05.535Z,29.29
2018-06-30T17:59:33.694Z,28.17
2018-06-30T18:02:01.865Z,29.10
2018-06-30T18:04:30.032Z,28.90
2018-06-30T18:06:58.201Z,28.90
2018-06-30T18:09:26.363Z,29.27
2018-06-30T18:11:54.526Z,29.81
2018-06-30T18:14:22.709Z,27.40
2018-06-30T18:16:50.889Z,27.92
2018-06-30T18:19:19.070Z,28.85
2018-06-30T18:21:47.238Z,27.25
2018-06-30T18:24:15.402Z,28.00
2018-06-30T18:26:43.562Z,26.04
2018-06-30T18:29:11.731Z,27.23
2018-06-30T18:31:39.894Z,27.85
2018-06-30T18:34:08.064Z,26.97
2018-06-30T18:36:36.210Z,26.91
2018-06-30T18:39:08.515Z,26.91
2018-06-30T18:41:36.878Z,27.00
2018-06-30T18:44:05.498Z,27.32
2018-06-30T18:46:34.951Z,26.35
2018-06-30T18:49:04.460Z,27.52
2018-06-30T18:51:33.288Z,27.13
2018-06-30T18:54:01.672Z,28.75
2018-06-30T18:56:30.034Z,27.68
2018-06-30T18:58:58.565Z,27.58
2018-06-30T19:01:26.995Z,27.63
2018-06-30T19:03:55.478Z,28.42
2018-06-30T19:06:24.699Z,27.63
2018-06-30T19:08:53.211Z,28.16
2018-06-30T19:11:21.570Z,27.76
2018-06-30T19:13:49.794Z,27.30
2018-06-30T19:16:18.215Z,27.92
2018-06-30T19:18:46.410Z,27.41
2018-06-30T19:21:14.642Z,28.01
2018-06-30T19:23:42.822Z,28.94
2018-06-30T19:26:10.994Z,28.05
2018-06-30T19:28:39.184Z,26.86
2018-06-30T19:31:07.350Z,28.18
2018-06-30T19:33:35.542Z,28.85
2018-06-30T19:36:03.751Z,28.22
2018-06-30T19:38:31.954Z,27.10
2018-06-30T19:41:00.116Z,27.48
2018-06-30T19:43:28.418Z,28.99
2018-06-30T19:45:56.595Z,28.87
2018-06-30T19:48:24.746Z,30.31
2018-06-30T19:50:52.934Z,29.85
2018-06-30T19:53:21.118Z,30.65
2018-06-30T19:55:49.290Z,30.17
2018-06-30T19:58:17.450Z,30.07
2018-06-30T20:00:45.622Z,31.16
2018-06-30T20:03:13.858Z,30.72
2018-06-30T20:05:42.136Z,30.66
2018-06-30T20:08:10.202Z,29.06
2018-06-30T20:10:38.404Z,29.73
2018-06-30T20:13:06.610Z,29.93
2018-06-30T20:15:34.781Z,29.33
2018-06-30T20:18:02.975Z,29.18
2018-06-30T20:20:31.142Z,29.71
2018-06-30T20:22:59.318Z,30.00
2018-06-30T20:25:27.499Z,29.44
2018-06-30T20:27:55.674Z,29.66
2018-06-30T20:30:23.950Z,30.35
2018-06-30T20:32:52.127Z,29.14
2018-06-30T20:35:20.513Z,29.04
2018-06-30T20:37:48.498Z,29.57
2018-06-30T20:40:16.670Z,30.16
2018-06-30T20:42:44.871Z,29.69
2018-06-30T20:45:13.139Z,28.82
2018-06-30T20:47:41.229Z,28.07
2018-06-30T20:50:09.471Z,28.25
2018-06-30T20:52:37.697Z,27.77
2018-06-30T20:55:05.884Z,28.47
2018-06-30T20:57:34.114Z,28.27
2018-06-30T21:00:02.287Z,28.29
2018-06-30T21:02:30.490Z,28.15
2018-06-30T21:04:58.670Z,28.70
2018-06-30T21:07:26.890Z,29.02
2018-06-30T21:09:55.065Z,28.56
2018-06-30T21:12:23.245Z,28.05
2018-06-30T21:14:51.419Z,28.02
2018-06-30T21:17:19.618Z,28.37
2018-06-30T21:19:47.791Z,29.27
2018-06-30T21:22:15.960Z,29.56
2018-06-30T21:24:44.160Z,29.44
2018-06-30T21:27:12.335Z,28.60
2018-06-30T21:29:40.501Z,28.96
2018-06-30T21:32:08.798Z,28.91
2018-06-30T21:34:37.005Z,28.87
2018-06-30T21:37:05.202Z,28.50
2018-06-30T21:39:33.390Z,28.25
2018-06-30T21:42:01.634Z,28.64
2018-06-30T21:44:29.799Z,28.51
2018-06-30T21:46:57.965Z,28.89
2018-06-30T21:49:26.126Z,28.77
2018-06-30T21:51:54.290Z,29.56
2018-06-30T21:54:22.456Z,29.35
2018-06-30T21:56:50.664Z,29.58
2018-06-30T21:59:18.815Z,29.79
2018-06-30T22:01:46.983Z,30.15
2018-06-30T22:04:15.186Z,29.53
2018-06-30T22:06:43.356Z,29.91
2018-06-30T22:09:11.826Z,29.59
2018-06-30T22:11:40.030Z,29.30
2018-06-30T22:14:08.199Z,31.04
2018-06-30T22:16:36.357Z,29.71
2018-06-30T22:19:04.543Z,29.93
2018-06-30T22:21:32.721Z,30.26
2018-06-30T22:24:00.910Z,29.63
2018-06-30T22:26:29.129Z,29.88
2018-06-30T22:28:57.255Z,29.52
2018-06-30T22:31:25.410Z,30.09
2018-06-30T22:33:53.581Z,29.96
2018-06-30T22:36:21.751Z,29.93
2018-06-30T22:38:49.911Z,30.74
2018-06-30T22:41:18.091Z,30.51
2018-06-30T22:43:46.258Z,30.09
2018-06-30T22:46:14.534Z,30.24
2018-06-30T22:48:42.690Z,31.31
2018-06-30T22:51:11.093Z,30.29
2018-06-30T22:53:39.294Z,30.37
2018-06-30T22:56:07.482Z,30.44
2018-06-30T22:58:35.663Z,31.00
2018-06-30T23:01:03.847Z,29.97
2018-06-30T23:03:32.013Z,29.99
2018-06-30T23:06:00.172Z,30.37
2018-06-30T23:08:28.349Z,31.00
2018-06-30T23:10:56.507Z,30.68
2018-06-30T23:13:24.676Z,31.11
2018-06-30T23:15:52.842Z,30.91
2018-06-30T23:18:21.002Z,31.11
2018-06-30T23:20:49.176Z,31.45
2018-06-30T23:23:17.362Z,31.31
2018-06-30T23:25:45.564Z,31.13
2018-06-30T23:28:13.707Z,31.38
2018-06-30T23:30:41.861Z,31.45
2018-06-30T23:33:10.019Z,31.41
2018-06-30T23:35:38.174Z,31.04
2018-06-30T23:38:06.326Z,31.34
2018-06-30T23:40:34.502Z,32.22
2018-06-30T23:43:02.681Z,31.81
2018-06-30T23:45:30.837Z,31.86
2018-06-30T23:47:58.990Z,31.30
2018-06-30T23:50:27.143Z,32.32
2018-06-30T23:52:55.320Z,32.43
2018-06-30T23:55:23.501Z,31.74
2018-06-30T23:57:51.673Z,32.00
